Time;durP1;ratioP1;P1;durP2;ratioP2;P2;SDS_P1;SDS_P2;PMS_P1;PMS_P2;Temp;Humidity;BMP_temperature;BMP_pressure;BME280_temperature;BME280_humidity;BME280_pressure;Samples;Min_cycle;Max_cycle;Signal;HPM_P1;HPM_P2
2022/10/21 00:01:27;;;;;;;;;4.80;4.60;;;;;14.09;39.84;100176.69;5047952;28;8853;-81
2022/10/21 00:03:56;;;;;;;;;6.80;5.20;;;;;14.10;39.46;100173.19;5058362;28;8853;-82
2022/10/21 00:06:24;;;;;;;;;5.40;3.00;;;;;14.10;39.66;100178.44;5046708;28;8857;-82
2022/10/21 00:08:53;;;;;;;;;4.80;3.60;;;;;14.17;39.42;100172.28;5064458;28;8879;-81
2022/10/21 00:11:23;;;;;;;;;5.60;5.60;;;;;14.20;39.54;100181.00;5021181;28;8860;-83
2022/10/21 00:13:52;;;;;;;;;5.40;5.40;;;;;13.96;39.60;100168.00;5052894;28;9709;-81
2022/10/21 00:16:20;;;;;;;;;10.80;8.40;;;;;14.08;39.74;100177.56;5050162;28;8860;-81
2022/10/21 00:18:49;;;;;;;;;6.20;5.00;;;;;14.13;39.79;100171.41;5050668;28;8881;-82
2022/10/21 00:21:20;;;;;;;;;7.40;5.20;;;;;14.17;39.29;100174.91;5051402;28;8865;-82
2022/10/21 00:23:50;;;;;;;;;4.00;4.00;;;;;14.17;39.29;100170.53;5052191;28;8900;-82
2022/10/21 00:26:19;;;;;;;;;6.00;6.00;;;;;14.16;39.23;100170.56;5034195;28;8872;-81
2022/10/21 00:28:55;;;;;;;;;5.00;5.00;;;;;14.21;39.31;100161.78;5050888;28;8879;-81
2022/10/21 00:31:24;;;;;;;;;5.00;5.00;;;;;14.15;39.38;100166.16;5049592;28;8891;-83
2022/10/21 00:33:53;;;;;;;;;4.60;4.20;;;;;14.19;39.03;100157.41;5032197;28;8868;-82
2022/10/21 00:36:22;;;;;;;;;5.00;5.00;;;;;14.23;38.97;100162.63;5051116;28;8845;-81
2022/10/21 00:38:50;;;;;;;;;9.60;8.40;;;;;14.21;39.43;100160.88;5049519;28;8845;-83
2022/10/21 00:41:20;;;;;;;;;9.80;9.40;;;;;14.22;39.03;100157.41;5050239;28;8895;-81
2022/10/21 00:43:59;;;;;;;;;5.60;5.60;;;;;14.27;39.07;100158.22;5016080;28;8887;-82
2022/10/21 00:46:37;;;;;;;;;4.60;4.60;;;;;14.23;38.83;100156.50;5050335;28;8962;-81
2022/10/21 00:49:12;;;;;;;;;4.00;3.60;;;;;14.21;38.78;100151.28;5048709;28;8837;-82
2022/10/21 00:51:41;;;;;;;;;5.00;5.00;;;;;14.26;38.72;100143.38;5048939;28;8853;-81
2022/10/21 00:54:11;;;;;;;;;5.40;5.40;;;;;14.26;38.84;100132.88;5049051;28;8882;-81
2022/10/21 00:56:44;;;;;;;;;4.60;3.60;;;;;14.27;38.76;100145.09;5032744;28;9138;-81
2022/10/21 00:59:15;;;;;;;;;5.60;5.00;;;;;14.21;38.79;100130.31;5048755;28;9697;-81
2022/10/21 01:01:44;;;;;;;;;8.80;4.00;;;;;14.21;38.58;100132.03;5050029;28;8899;-82
2022/10/21 01:04:13;;;;;;;;;6.20;6.00;;;;;14.19;38.90;100131.16;5048343;28;8869;-82
2022/10/21 01:06:42;;;;;;;;;5.80;5.80;;;;;14.17;38.60;100111.94;5031496;28;8829;-82
2022/10/21 01:09:13;;;;;;;;;7.80;3.80;;;;;14.20;38.34;100118.06;5033965;28;8859;-84
2022/10/21 01:11:45;;;;;;;;;6.40;5.00;;;;;14.22;38.23;100112.81;5049563;28;9646;-81
2022/10/21 01:14:41;;;;;;;;;5.60;5.60;;;;;14.29;38.13;100106.63;5049287;28;8872;-79
2022/10/21 01:17:20;;;;;;;;;5.00;5.00;;;;;14.25;38.25;100110.13;5050269;28;8890;-81
2022/10/21 01:20:29;;;;;;;;;8.00;6.60;;;;;14.18;38.64;100108.47;5049710;28;8934;-81
2022/10/21 01:23:33;;;;;;;;;6.40;6.40;;;;;14.22;38.51;100104.94;5048227;28;9944;-81
2022/10/21 01:26:21;;;;;;;;;10.80;9.00;;;;;14.20;38.55;100102.31;5005433;28;8833;-80
2022/10/21 01:29:08;;;;;;;;;8.00;8.00;;;;;14.11;38.76;100097.13;5031899;28;8903;-80
2022/10/21 01:31:42;;;;;;;;;9.00;6.60;;;;;14.09;39.00;100098.03;5049138;28;8857;-80
2022/10/21 01:34:19;;;;;;;;;7.20;7.20;;;;;14.13;38.48;100094.50;5048530;28;8873;-81
2022/10/21 01:36:54;;;;;;;;;9.00;7.20;;;;;14.18;38.60;100087.47;5049619;28;10063;-79
2022/10/21 01:39:28;;;;;;;;;11.20;10.20;;;;;14.24;39.09;100084.81;5040439;28;8831;-81
2022/10/21 01:42:02;;;;;;;;;9.00;6.00;;;;;14.24;39.03;100082.19;5030466;28;8858;-82
2022/10/21 01:44:37;;;;;;;;;9.20;9.20;;;;;14.26;38.92;100082.19;5030018;28;8892;-81
2022/10/21 01:47:15;;;;;;;;;10.40;10.40;;;;;14.30;38.74;100084.75;5046359;28;8871;-81
2022/10/21 01:49:50;;;;;;;;;10.20;10.00;;;;;14.32;38.82;100077.75;5046584;28;8912;-82
2022/10/21 01:52:19;;;;;;;;;11.80;10.20;;;;;14.27;38.82;100078.66;5030333;28;8839;-81
2022/10/21 01:54:55;;;;;;;;;10.40;9.40;;;;;14.32;38.59;100075.13;5025482;28;8875;-83
2022/10/21 01:57:29;;;;;;;;;11.40;10.80;;;;;14.26;39.03;100074.31;5026372;28;8871;-80
2022/10/21 02:00:00;;;;;;;;;9.80;9.60;;;;;14.20;38.83;100072.59;4993574;28;8879;-80
2022/10/21 02:02:37;;;;;;;;;7.60;7.40;;;;;14.18;38.69;100071.75;4980069;28;8855;-79
2022/10/21 02:05:13;;;;;;;;;9.60;9.00;;;;;14.20;38.49;100072.59;5009743;28;9674;-80
2022/10/21 02:07:42;;;;;;;;;8.60;8.60;;;;;14.18;38.24;100072.59;5026703;28;8855;-80
2022/10/21 02:10:11;;;;;;;;;11.40;10.20;;;;;14.20;38.96;100072.59;5029511;28;8857;-79
2022/10/21 02:12:42;;;;;;;;;10.00;10.00;;;;;14.13;38.84;100069.13;5050039;28;8977;-80
2022/10/21 02:15:13;;;;;;;;;16.00;10.50;;;;;14.14;39.11;100070.00;5031372;28;8849;-79
2022/10/21 02:17:50;;;;;;;;;13.50;11.25;;;;;14.23;39.20;100075.19;5050805;28;8857;-81
2022/10/21 02:20:20;;;;;;;;;11.75;11.00;;;;;14.21;38.94;100076.94;5050106;28;8971;-80
2022/10/21 02:22:49;;;;;;;;;12.00;11.00;;;;;14.12;39.13;100069.13;5049329;28;8841;-80
2022/10/21 02:25:21;;;;;;;;;10.80;9.40;;;;;14.21;39.20;100067.34;5047406;28;8857;-80
2022/10/21 02:27:51;;;;;;;;;10.40;10.00;;;;;14.11;38.93;100070.03;5046205;28;8861;-80
2022/10/21 02:30:20;;;;;;;;;10.00;10.00;;;;;14.13;38.64;100069.13;5013698;28;8841;-80
2022/10/21 02:32:57;;;;;;;;;8.80;8.20;;;;;14.16;38.26;100078.75;5048103;28;8875;-80
2022/10/21 02:35:34;;;;;;;;;9.60;9.60;;;;;14.15;38.09;100074.38;5051749;28;8898;-80
2022/10/21 02:38:10;;;;;;;;;6.00;5.40;;;;;14.19;38.42;100076.09;5053589;28;8881;-80
2022/10/21 02:40:43;;;;;;;;;9.60;8.80;;;;;14.20;38.23;100083.94;5053134;28;9643;-79
2022/10/21 02:43:17;;;;;;;;;9.00;9.00;;;;;14.21;38.50;100075.22;5065218;28;8863;-81
2022/10/21 02:45:46;;;;;;;;;9.40;9.00;;;;;14.23;38.34;100073.44;5047011;28;8875;-81
2022/10/21 02:48:16;;;;;;;;;13.60;10.40;;;;;14.24;38.22;100090.91;5064129;28;8873;-80
2022/10/21 02:50:45;;;;;;;;;12.40;10.80;;;;;14.27;38.21;100087.38;5054100;28;8844;-80
2022/10/21 02:53:14;;;;;;;;;8.80;8.80;;;;;14.26;38.18;100083.03;5053448;28;8856;-81
2022/10/21 02:55:43;;;;;;;;;10.00;8.60;;;;;14.30;38.07;100082.13;5034137;28;8865;-81
2022/10/21 02:58:11;;;;;;;;;8.40;8.40;;;;;14.27;37.82;100076.91;5052706;28;8848;-84
2022/10/21 03:00:40;;;;;;;;;11.60;8.80;;;;;14.26;38.17;100076.94;5052720;28;8877;-83
2022/10/21 03:03:08;;;;;;;;;8.60;8.60;;;;;14.26;38.12;100079.56;5051939;28;8865;-81
2022/10/21 03:05:38;;;;;;;;;8.20;6.60;;;;;14.32;38.12;100082.13;5034314;28;8963;-82
2022/10/21 03:08:07;;;;;;;;;10.80;7.40;;;;;14.33;38.06;100081.22;5034549;28;8868;-81
2022/10/21 03:10:36;;;;;;;;;9.00;9.00;;;;;14.38;37.67;100089.94;5051810;28;8863;-82
2022/10/21 03:13:05;;;;;;;;;8.80;7.40;;;;;14.44;37.99;100074.16;4986583;28;8857;-82
2022/10/21 03:15:33;;;;;;;;;10.40;9.80;;;;;14.39;37.92;100074.19;5034999;28;8857;-80
2022/10/21 03:18:02;;;;;;;;;10.00;10.00;;;;;14.38;38.06;100068.94;5015860;28;8857;-80
2022/10/21 03:20:30;;;;;;;;;13.60;12.00;;;;;14.27;38.76;100071.66;5050220;28;8837;-81
2022/10/21 03:23:00;;;;;;;;;12.60;11.60;;;;;14.27;39.09;100062.91;5033958;28;8869;-82
2022/10/21 03:25:29;;;;;;;;;36.50;33.50;;;;;14.20;39.23;100054.22;5033394;28;8962;-82
2022/10/21 03:28:03;;;;;;;;;16.25;15.25;;;;;14.12;39.71;100051.66;5012670;28;8878;-79
2022/10/21 03:30:32;;;;;;;;;22.75;20.00;;;;;14.09;39.69;100051.69;5028911;28;9058;-83
2022/10/21 03:33:00;;;;;;;;;23.75;22.00;;;;;14.09;39.88;100046.44;5029462;28;8849;-80
2022/10/21 03:35:29;;;;;;;;;17.00;17.00;;;;;14.06;39.97;100048.19;5011534;28;8951;-80
2022/10/21 03:37:58;;;;;;;;;13.75;12.50;;;;;14.03;39.54;100049.97;5012089;28;8853;-82
2022/10/21 03:40:29;;;;;;;;;13.25;12.50;;;;;14.02;39.66;100047.34;5029643;28;8889;-83
2022/10/21 03:42:58;;;;;;;;;21.00;18.25;;;;;14.00;40.16;100049.13;5029538;28;8923;-82
2022/10/21 03:45:27;;;;;;;;;51.50;41.50;;;;;14.01;40.24;100040.38;5012511;28;8904;-84
2022/10/21 03:47:56;;;;;;;;;16.75;16.75;;;;;13.83;40.12;100046.59;5029755;28;8911;-83
2022/10/21 03:50:24;;;;;;;;;17.00;14.50;;;;;13.81;40.70;100041.34;5026531;28;8865;-81
2022/10/21 03:52:55;;;;;;;;;14.00;14.00;;;;;13.79;40.80;100040.50;4977767;28;9629;-81
2022/10/21 03:55:24;;;;;;;;;16.00;15.25;;;;;13.75;41.19;100035.28;4995885;28;8863;-82
2022/10/21 03:57:54;;;;;;;;;16.75;14.50;;;;;13.76;41.34;100031.78;4997202;28;8868;-82
2022/10/21 04:00:23;;;;;;;;;38.50;34.25;;;;;13.76;41.33;100024.81;5036368;28;9795;-83
2022/10/21 04:02:56;;;;;;;;;37.25;31.50;;;;;13.73;41.48;100031.81;5035974;28;8840;-83
2022/10/21 04:05:25;;;;;;;;;24.75;18.00;;;;;13.41;42.38;100020.59;5053110;28;9948;-81
2022/10/21 04:07:53;;;;;;;;;27.50;25.75;;;;;13.28;42.35;100034.59;5059145;28;8876;-80
2022/10/21 04:10:22;;;;;;;;;17.75;17.75;;;;;13.26;42.84;100026.72;5052930;28;9591;-80
2022/10/21 04:12:51;;;;;;;;;15.75;14.50;;;;;13.24;42.51;100025.88;5050193;28;8841;-81
2022/10/21 04:15:20;;;;;;;;;22.50;20.50;;;;;13.21;42.59;100019.78;5052205;28;8853;-81
2022/10/21 04:17:49;;;;;;;;;20.75;18.50;;;;;13.20;43.13;100018.03;5052037;28;8876;-79
2022/10/21 04:20:18;;;;;;;;;21.00;18.00;;;;;13.15;43.08;100022.41;5050346;28;8971;-81
2022/10/21 04:22:46;;;;;;;;;19.25;18.50;;;;;13.06;43.43;100018.06;5048911;28;8856;-81
2022/10/21 04:25:15;;;;;;;;;16.75;16.00;;;;;13.07;43.33;100007.59;5049800;28;8853;-79
2022/10/21 04:27:44;;;;;;;;;21.75;20.75;;;;;13.07;43.32;100010.22;5048490;28;9662;-80
2022/10/21 04:30:12;;;;;;;;;22.75;20.75;;;;;13.09;43.68;100007.59;5050649;28;8852;-82
2022/10/21 04:32:42;;;;;;;;;22.50;21.00;;;;;12.94;44.14;100007.66;5049816;28;8915;-81
2022/10/21 04:35:11;;;;;;;;;21.50;18.50;;;;;13.05;43.91;100008.50;5051072;28;9585;-82
2022/10/21 04:37:40;;;;;;;;;29.75;26.00;;;;;13.04;43.81;99998.88;5051056;28;8995;-82
2022/10/21 04:40:10;;;;;;;;;28.50;25.25;;;;;13.04;43.50;99986.69;5050512;28;8873;-82
2022/10/21 04:42:38;;;;;;;;;22.25;22.25;;;;;13.03;44.32;99986.69;5048690;28;8880;-80
2022/10/21 04:45:08;;;;;;;;;25.00;23.75;;;;;12.93;44.27;99993.69;5049032;28;8883;-82
2022/10/21 04:47:37;;;;;;;;;29.25;26.75;;;;;12.78;45.05;99992.00;5049102;28;8957;-82
2022/10/21 04:50:09;;;;;;;;;22.00;20.50;;;;;12.69;45.55;99994.63;4999999;28;8849;-81
2022/10/21 04:52:38;;;;;;;;;22.25;21.00;;;;;12.70;45.10;100001.56;5050666;28;8875;-80
2022/10/21 04:55:09;;;;;;;;;29.75;24.75;;;;;12.66;45.74;99990.28;5049019;28;8863;-81
2022/10/21 04:57:38;;;;;;;;;28.00;23.25;;;;;12.68;45.02;100006.84;5049017;28;8937;-82
2022/10/21 05:00:08;;;;;;;;;28.00;25.25;;;;;12.69;45.20;100010.31;5050766;28;8873;-82
2022/10/21 05:02:37;;;;;;;;;29.25;25.75;;;;;12.62;45.16;100017.28;5013213;28;8859;-83
2022/10/21 05:05:08;;;;;;;;;25.75;24.00;;;;;12.58;45.86;100012.09;5037832;28;8887;-81
2022/10/21 05:07:37;;;;;;;;;29.25;28.75;;;;;12.57;46.18;100012.94;5048755;28;8865;-81
2022/10/21 05:10:06;;;;;;;;;32.75;29.00;;;;;12.46;46.43;100007.75;5032454;28;8861;-82
2022/10/21 05:12:35;;;;;;;;;31.50;30.00;;;;;12.44;46.88;100010.34;5048923;28;8833;-82
2022/10/21 05:15:05;;;;;;;;;29.00;27.00;;;;;12.45;46.69;100006.84;5048648;28;8935;-82
2022/10/21 05:17:35;;;;;;;;;27.25;27.25;;;;;12.48;47.23;99999.00;5032981;28;8861;-81
2022/10/21 05:20:05;;;;;;;;;26.25;26.25;;;;;12.55;46.80;100007.72;5034245;28;8888;-80
2022/10/21 05:22:36;;;;;;;;;27.25;25.00;;;;;12.47;47.22;100005.09;5055016;28;8872;-83
2022/10/21 05:25:06;;;;;;;;;24.25;22.75;;;;;12.49;47.04;99999.88;4974626;28;9033;-82
2022/10/21 05:27:35;;;;;;;;;30.25;30.25;;;;;12.38;47.40;99994.66;4995579;28;8952;-83
2022/10/21 05:30:05;;;;;;;;;29.00;27.50;;;;;12.44;46.79;99999.03;4976332;28;8866;-83
2022/10/21 05:32:35;;;;;;;;;35.00;34.75;;;;;12.36;47.36;100006.88;4969932;28;9016;-81
2022/10/21 05:35:04;;;;;;;;;29.00;27.25;;;;;12.36;47.30;100009.50;4964043;28;8952;-81
2022/10/21 05:37:34;;;;;;;;;25.75;24.25;;;;;12.40;47.23;100006.00;4976547;28;8921;-84
2022/10/21 05:40:06;;;;;;;;;31.75;27.25;;;;;12.34;47.48;100000.75;4966926;28;8859;-83
2022/10/21 05:42:35;;;;;;;;;32.50;30.25;;;;;12.26;48.27;100005.13;4984517;28;9714;-83
2022/10/21 05:45:06;;;;;;;;;36.25;32.75;;;;;12.16;48.19;100008.63;5032418;28;8856;-85
2022/10/21 05:47:36;;;;;;;;;32.50;30.50;;;;;11.98;49.15;100001.63;5048507;28;8861;-83
2022/10/21 05:50:05;;;;;;;;;38.25;35.00;;;;;11.83;49.55;99999.81;5048867;28;8962;-79
2022/10/21 05:52:36;;;;;;;;;35.50;34.75;;;;;11.68;50.35;99998.03;5038477;28;8879;-82
2022/10/21 05:55:06;;;;;;;;;38.00;36.00;;;;;11.57;51.37;99998.03;5047058;28;8865;-80
2022/10/21 05:57:36;;;;;;;;;35.75;35.25;;;;;11.51;51.39;100011.06;5022240;28;8874;-82
2022/10/21 06:00:06;;;;;;;;;34.75;31.00;;;;;11.57;51.02;100007.59;5022977;28;8860;-81
2022/10/21 06:02:37;;;;;;;;;45.25;37.00;;;;;11.27;52.83;100002.28;4989808;28;8892;-81
2022/10/21 06:05:06;;;;;;;;;42.50;38.00;;;;;11.27;52.33;100004.03;5044897;28;8856;-79
2022/10/21 06:07:36;;;;;;;;;45.50;37.00;;;;;11.28;52.86;99998.78;5058745;28;8865;-83
2022/10/21 06:10:06;;;;;;;;;39.75;35.25;;;;;11.35;52.93;100004.06;5058918;28;8911;-80
2022/10/21 06:12:35;;;;;;;;;48.25;40.25;;;;;11.31;53.44;100005.78;5048121;28;8867;-80
2022/10/21 06:15:03;;;;;;;;;42.75;36.75;;;;;11.30;53.08;100014.47;5056133;28;8889;-81
2022/10/21 06:17:32;;;;;;;;;42.75;38.75;;;;;11.28;53.48;100018.81;5056311;28;8876;-81
2022/10/21 06:20:01;;;;;;;;;42.25;36.25;;;;;11.30;53.31;100017.06;5036590;28;8872;-82
2022/10/21 06:22:30;;;;;;;;;36.50;34.25;;;;;11.43;53.48;100015.38;5032720;28;8860;-80
2022/10/21 06:25:00;;;;;;;;;40.50;37.75;;;;;11.54;53.30;100023.28;5058293;28;8869;-82
2022/10/21 06:27:29;;;;;;;;;32.00;31.50;;;;;11.55;53.74;100020.66;5054993;28;8993;-82
2022/10/21 06:29:59;;;;;;;;;46.25;39.25;;;;;11.71;53.59;100004.16;5038243;28;8879;-86
2022/10/21 06:32:28;;;;;;;;;45.50;36.50;;;;;11.81;53.43;100006.78;5053045;28;8860;-85
2022/10/21 06:34:56;;;;;;;;;48.50;38.50;;;;;11.89;52.78;100003.38;5043526;28;8881;-82
2022/10/21 06:37:25;;;;;;;;;40.75;33.25;;;;;12.07;52.59;100004.25;5058589;28;8868;-81
2022/10/21 06:39:54;;;;;;;;;38.50;35.75;;;;;11.99;53.04;99995.53;5047211;28;8935;-83
2022/10/21 06:42:24;;;;;;;;;41.75;36.75;;;;;12.01;52.90;100005.13;5034068;28;8890;-83
2022/10/21 06:44:53;;;;;;;;;39.00;35.50;;;;;12.05;52.83;100003.38;5019520;28;8889;-82
2022/10/21 06:47:27;;;;;;;;;47.25;37.75;;;;;12.17;52.84;100005.13;5041413;28;8908;-81
2022/10/21 06:49:56;;;;;;;;;42.75;37.50;;;;;12.21;53.01;99993.78;5045237;28;8882;-83
2022/10/21 06:52:26;;;;;;;;;44.00;38.25;;;;;12.36;52.69;99987.69;5031714;28;8935;-85
2022/10/21 06:54:54;;;;;;;;;43.25;39.25;;;;;12.40;52.86;99989.41;5051621;28;8947;-82
2022/10/21 06:57:26;;;;;;;;;40.75;36.25;;;;;12.46;52.30;99989.44;5038751;28;9006;-85
2022/10/21 06:59:55;;;;;;;;;38.50;33.50;;;;;12.36;52.67;99988.56;5035943;28;9616;-81
2022/10/21 07:02:24;;;;;;;;;47.25;40.75;;;;;12.53;52.67;99982.44;5056592;28;8869;-80
2022/10/21 07:04:52;;;;;;;;;37.50;35.00;;;;;12.67;52.44;99981.53;5043727;28;10009;-83
2022/10/21 07:07:21;;;;;;;;;36.00;33.25;;;;;12.75;52.33;99971.06;5039661;28;8905;-80
2022/10/21 07:09:50;;;;;;;;;38.75;35.75;;;;;12.82;51.91;99978.00;5041709;28;8894;-84
2022/10/21 07:12:19;;;;;;;;;39.50;36.25;;;;;13.02;51.83;99975.34;5033678;28;8909;-83
2022/10/21 07:14:50;;;;;;;;;39.25;34.75;;;;;13.16;51.26;99972.66;5027403;28;8949;-81
2022/10/21 07:17:47;;;;;;;;;36.25;34.00;;;;;13.44;50.68;99978.69;5031913;28;9017;-81
2022/10/21 07:20:16;;;;;;;;;36.00;35.00;;;;;13.71;50.34;99973.28;5045311;28;8872;-82
2022/10/21 07:22:47;;;;;;;;;31.25;30.50;;;;;13.73;50.00;99984.63;5024837;28;8871;-82
2022/10/21 07:25:17;;;;;;;;;12.75;11.00;;;;;13.99;49.37;99989.69;4957598;28;8955;-80
2022/10/21 07:27:49;;;;;;;;;31.50;31.50;;;;;14.21;48.76;99990.38;4939612;28;8862;-81
2022/10/21 07:30:22;;;;;;;;;40.00;33.50;;;;;14.38;48.85;99979.75;4954927;28;8866;-81
2022/10/21 07:32:52;;;;;;;;;40.75;35.00;;;;;14.42;48.69;99974.47;4950946;28;8879;-81
2022/10/21 07:35:23;;;;;;;;;42.50;35.75;;;;;14.63;48.78;99977.81;4961508;28;8914;-81
2022/10/21 07:37:52;;;;;;;;;36.50;31.75;;;;;14.77;48.39;99973.25;4963269;28;8866;-80
2022/10/21 07:40:21;;;;;;;;;43.00;34.25;;;;;14.97;48.29;99975.69;4951181;28;8971;-83
2022/10/21 07:42:50;;;;;;;;;36.25;32.50;;;;;15.06;48.00;99979.94;4956567;28;8893;-82
2022/10/21 07:45:19;;;;;;;;;37.75;35.25;;;;;15.09;48.34;99979.06;5031566;28;9002;-80
2022/10/21 07:47:49;;;;;;;;;41.00;34.00;;;;;15.24;47.88;99984.13;5033069;28;8928;-80
2022/10/21 07:50:18;;;;;;;;;34.00;32.25;;;;;15.31;47.72;99971.75;5010676;28;8860;-81
2022/10/21 07:52:47;;;;;;;;;35.75;33.25;;;;;15.55;46.89;99979.31;5038572;28;8848;-82
2022/10/21 07:55:31;;;;;;;;;34.00;31.75;;;;;15.66;47.05;99978.31;5023007;28;8956;-83
2022/10/21 07:58:00;;;;;;;;;32.50;31.50;;;;;15.73;46.42;99983.47;5041686;28;8886;-80
2022/10/21 08:00:29;;;;;;;;;32.00;30.50;;;;;15.89;46.46;99980.63;5032111;28;9015;-83
2022/10/21 08:02:59;;;;;;;;;29.00;29.00;;;;;16.03;45.96;99989.19;5056434;28;9186;-81
2022/10/21 08:05:28;;;;;;;;;35.25;33.25;;;;;16.26;45.29;99980.91;5011567;28;8884;-82
2022/10/21 08:07:59;;;;;;;;;32.00;29.25;;;;;16.47;45.13;99979.66;5050294;28;8953;-81
2022/10/21 08:10:28;;;;;;;;;32.00;27.50;;;;;16.27;44.89;99980.00;5037782;28;8848;-87
2022/10/21 08:12:57;;;;;;;;;31.50;26.50;;;;;16.62;44.44;99975.03;5024865;28;8861;-80
2022/10/21 08:15:25;;;;;;;;;30.50;28.50;;;;;16.79;43.87;99972.06;5032872;28;8864;-84
2022/10/21 08:17:54;;;;;;;;;29.75;28.25;;;;;16.83;43.56;99952.72;5000794;28;8872;-80
2022/10/21 08:20:24;;;;;;;;;31.00;27.75;;;;;17.01;43.04;99949.69;5028866;28;8872;-81
2022/10/21 08:22:53;;;;;;;;;26.00;23.75;;;;;17.17;42.99;99942.34;5066935;28;8865;-84
2022/10/21 08:25:22;;;;;;;;;34.50;29.75;;;;;17.36;42.52;99934.91;5032455;28;8849;-83
2022/10/21 08:27:53;;;;;;;;;30.75;28.75;;;;;17.35;42.33;99935.78;5056453;28;8868;-84
2022/10/21 08:30:22;;;;;;;;;27.25;27.00;;;;;17.36;42.77;99918.22;5025531;28;8861;-82
2022/10/21 08:32:53;;;;;;;;;33.50;30.00;;;;;17.67;42.14;99918.38;5050642;28;8959;-83
2022/10/21 08:35:22;;;;;;;;;25.25;23.25;;;;;17.62;41.46;99910.56;5053032;28;8852;-85
2022/10/21 08:37:53;;;;;;;;;22.00;21.00;;;;;17.57;41.96;99916.88;4985916;28;8872;-84
2022/10/21 08:40:22;;;;;;;;;28.00;27.00;;;;;17.51;41.59;99916.09;5045914;28;8871;-85
2022/10/21 08:42:52;;;;;;;;;23.00;22.00;;;;;17.66;41.99;99909.59;5043042;28;8882;-83
2022/10/21 08:45:29;;;;;;;;;31.50;28.00;;;;;17.76;41.82;99928.72;5038184;28;8849;-86
2022/10/21 08:48:03;;;;;;;;;25.75;25.75;;;;;17.68;41.45;99914.84;5056286;28;8859;-81
2022/10/21 08:50:38;;;;;;;;;28.50;25.75;;;;;17.72;41.80;99917.34;5055381;28;8937;-81
2022/10/21 08:53:16;;;;;;;;;27.00;25.25;;;;;17.91;41.22;99916.94;5057124;28;9618;-82
2022/10/21 08:55:46;;;;;;;;;30.50;27.00;;;;;18.04;40.55;99921.00;5028134;28;8873;-79
2022/10/21 08:58:19;;;;;;;;;31.75;29.00;;;;;18.20;40.59;99917.97;5036906;28;8889;-80
2022/10/21 09:00:54;;;;;;;;;23.25;22.50;;;;;18.14;40.39;99931.34;5034349;28;8875;-81
2022/10/21 09:03:31;;;;;;;;;27.25;25.00;;;;;18.27;40.45;99938.91;5016281;28;8978;-81
2022/10/21 09:06:17;;;;;;;;;24.75;24.00;;;;;18.21;39.79;99944.34;5035405;28;8887;-82
2022/10/21 09:08:58;;;;;;;;;28.00;27.00;;;;;18.46;39.79;99941.06;5049537;28;8950;-82
2022/10/21 09:11:39;;;;;;;;;26.25;25.25;;;;;18.41;39.97;99940.31;5049933;28;8872;-82
2022/10/21 09:14:38;;;;;;;;;27.00;25.50;;;;;18.72;39.93;99934.22;5032247;28;8864;-83
2022/10/21 09:17:20;;;;;;;;;26.75;24.25;;;;;18.55;39.63;99938.19;4987061;28;8903;-82
2022/10/21 09:19:59;;;;;;;;;28.50;24.00;;;;;18.33;39.41;99942.28;5051007;28;8857;-82
2022/10/21 09:22:49;;;;;;;;;33.75;27.50;;;;;18.40;39.65;99928.03;5034495;28;8891;-82
2022/10/21 09:25:26;;;;;;;;;26.25;24.50;;;;;18.45;39.43;99926.13;5029544;28;9734;-83
2022/10/21 09:27:56;;;;;;;;;27.25;25.25;;;;;18.52;39.48;99925.03;5046358;28;8865;-82
2022/10/21 09:30:26;;;;;;;;;26.25;23.75;;;;;18.49;39.59;99926.00;5057853;28;8906;-81
2022/10/21 09:32:58;;;;;;;;;30.50;28.00;;;;;18.60;39.46;99933.66;5053318;28;8851;-82
2022/10/21 09:35:37;;;;;;;;;25.75;24.50;;;;;18.55;39.66;99921.47;5025968;28;8923;-81
2022/10/21 09:38:15;;;;;;;;;27.50;24.50;;;;;18.61;39.42;99923.94;5048202;28;8939;-82
2022/10/21 09:40:48;;;;;;;;;27.00;27.00;;;;;18.61;39.44;99921.31;5044955;28;8875;-81
2022/10/21 09:43:20;;;;;;;;;31.00;26.75;;;;;18.67;39.48;99924.63;5067807;28;8855;-82
2022/10/21 09:45:49;;;;;;;;;28.25;25.25;;;;;18.54;39.71;99919.72;5068250;28;8855;-84
2022/10/21 09:48:28;;;;;;;;;27.25;25.50;;;;;18.63;39.64;99925.63;5034311;28;8926;-84
2022/10/21 09:51:14;;;;;;;;;26.50;23.50;;;;;18.77;39.31;99912.03;5037475;28;8885;-87
2022/10/21 09:53:48;;;;;;;;;22.00;22.00;;;;;18.80;39.40;99911.97;5051020;28;8852;-82
2022/10/21 09:56:28;;;;;;;;;28.75;26.00;;;;;18.82;39.18;99904.88;5008739;28;8879;-83
2022/10/21 09:59:08;;;;;;;;;24.75;22.50;;;;;18.89;39.26;99910.84;4974630;28;9632;-82
2022/10/21 10:01:39;;;;;;;;;23.75;22.50;;;;;18.92;39.04;99907.25;4979064;28;8857;-84
2022/10/21 10:04:13;;;;;;;;;20.50;20.50;;;;;19.02;38.86;99906.09;4964601;28;8862;-81
2022/10/21 10:06:54;;;;;;;;;23.25;21.50;;;;;18.97;38.93;99905.34;4917172;28;8870;-81
2022/10/21 10:09:28;;;;;;;;;27.00;25.25;;;;;19.16;38.57;99897.72;4968579;28;8885;-82
2022/10/21 10:12:04;;;;;;;;;20.75;20.75;;;;;19.17;38.66;99887.13;4916555;29;8979;-82
2022/10/21 10:14:35;;;;;;;;;22.75;22.25;;;;;19.42;38.05;99889.00;4918420;28;8930;-83
2022/10/21 10:17:32;;;;;;;;;25.75;24.50;;;;;19.64;37.83;99881.22;4935146;28;8900;-83
2022/10/21 10:20:14;;;;;;;;;22.50;21.50;;;;;19.60;37.60;99874.31;4950787;28;8882;-83
2022/10/21 10:22:44;;;;;;;;;26.25;24.50;;;;;19.63;37.25;99859.22;4939223;28;8910;-84
2022/10/21 10:25:29;;;;;;;;;20.75;19.75;;;;;19.77;37.06;99869.38;4954227;28;8886;-82
2022/10/21 10:28:05;;;;;;;;;27.00;24.50;;;;;19.91;36.61;99881.28;4970707;28;8974;-82
2022/10/21 10:30:46;;;;;;;;;24.50;23.75;;;;;19.98;36.62;99862.50;4984133;28;8863;-83
2022/10/21 10:33:18;;;;;;;;;21.00;20.00;;;;;20.10;36.63;99866.50;4977002;28;8894;-84
2022/10/21 10:35:50;;;;;;;;;22.00;20.25;;;;;20.09;36.52;99878.00;5045097;28;8869;-83
2022/10/21 10:38:23;;;;;;;;;22.20;22.20;;;;;20.25;36.52;99865.97;5020751;28;8872;-85
2022/10/21 10:40:53;;;;;;;;;26.25;23.50;;;;;20.42;36.43;99868.00;5047488;28;8913;-85
2022/10/21 10:43:30;;;;;;;;;23.75;23.50;;;;;20.56;36.03;99862.19;5049659;28;8872;-82
2022/10/21 10:46:01;;;;;;;;;23.75;22.00;;;;;20.72;35.89;99859.00;5023365;28;8887;-81
2022/10/21 10:48:37;;;;;;;;;25.50;24.00;;;;;20.85;35.36;99857.66;5030462;28;8989;-83
2022/10/21 10:51:08;;;;;;;;;26.75;25.75;;;;;20.98;35.46;99850.97;5013727;28;8879;-80
2022/10/21 10:53:38;;;;;;;;;26.25;25.00;;;;;21.13;34.95;99859.22;5013677;28;8868;-86
2022/10/21 10:56:22;;;;;;;;;21.00;21.00;;;;;21.28;34.21;99841.84;5023997;28;8871;-80
2022/10/21 10:59:00;;;;;;;;;21.50;21.50;;;;;21.32;34.15;99847.00;5018172;28;8883;-83
2022/10/21 11:01:35;;;;;;;;;24.75;24.00;;;;;21.42;34.16;99844.81;4953386;28;8893;-83
2022/10/21 11:04:15;;;;;;;;;27.50;25.00;;;;;21.67;33.91;99854.47;4921771;29;8999;-80
2022/10/21 11:06:49;;;;;;;;;26.25;24.75;;;;;21.70;33.28;99856.97;4933531;28;8842;-82
2022/10/21 11:09:19;;;;;;;;;25.25;24.25;;;;;21.61;33.61;99839.66;4919371;28;8878;-81
2022/10/21 11:11:55;;;;;;;;;24.00;23.00;;;;;21.80;33.42;99822.03;4889409;28;8862;-80
2022/10/21 11:14:27;;;;;;;;;22.25;21.25;;;;;21.98;33.17;99820.41;4924792;28;8988;-81
2022/10/21 11:17:09;;;;;;;;;22.00;22.00;;;;;22.15;32.73;99811.66;4938198;28;8922;-82
2022/10/21 11:19:50;;;;;;;;;23.75;21.00;;;;;22.19;32.14;99807.06;4937443;28;8860;-84
2022/10/21 11:22:31;;;;;;;;;21.40;21.20;;;;;22.16;32.35;99809.88;4928091;28;9754;-81
2022/10/21 11:25:08;;;;;;;;;23.25;21.25;;;;;22.36;32.09;99807.25;4952550;28;9806;-84
2022/10/21 11:27:54;;;;;;;;;25.75;25.25;;;;;22.56;31.75;99798.34;4949395;28;9164;-84
2022/10/21 11:30:33;;;;;;;;;18.25;18.25;;;;;22.71;31.86;99798.59;4956648;28;8856;-82
2022/10/21 11:33:25;;;;;;;;;22.75;19.00;;;;;22.75;31.58;99797.50;4970750;28;8876;-84
2022/10/21 11:36:06;;;;;;;;;25.50;23.00;;;;;22.90;31.62;99806.56;4956410;28;8878;-84
2022/10/21 11:39:15;;;;;;;;;22.60;22.60;;;;;23.03;31.29;99802.41;4968310;28;9629;-87
2022/10/21 11:41:56;;;;;;;;;24.75;23.25;;;;;23.12;31.20;99798.44;4954088;28;8997;-83
2022/10/21 11:44:35;;;;;;;;;21.25;19.50;;;;;23.07;31.56;99792.50;4952328;28;8893;-83
2022/10/21 11:47:15;;;;;;;;;14.75;12.75;;;;;23.12;31.14;99785.16;4973976;28;8870;-81
2022/10/21 11:49:55;;;;;;;;;19.00;19.00;;;;;23.23;31.08;99795.25;4972720;28;8858;-85